Terminal Aerodrome Forecast
Issued by NWS St Louis, MO

Home | Current Version | Previous Version | Text Only | Print | Product List | Glossary On
Versions: 1 2 3 4 5 6 7 8 9 10 11 12 13 14 15 16 17 18 19 20 21 22 23 24 25 26 27
641
FTUS43 KLSX 270520
TAFSTL
TAF
KSTL 270520Z 2706/2812 04005KT P6SM BKN035
     FM271000 00000KT 4SM BR SCT040
     FM271300 05004KT P6SM SCT030
     FM272000 07006KT P6SM VCTS BKN045CB
     FM280100 VRB03KT P6SM SCT045=

USA.gov is the U.S. government's official web portal to all federal, state and local government web resources and services.